sensor_id;sensor_type;location;lat;lon;timestamp;pressure;altitude;pressure_sealevel;temperature;humidity
65010;BME280;51556;50.002;22.014;2022-12-20T00:01:46;100413.41;;;1.12;60.36
65010;BME280;51556;50.002;22.014;2022-12-20T00:04:12;100419.66;;;1.12;60.38
65010;BME280;51556;50.002;22.014;2022-12-20T00:06:37;100412.10;;;1.14;60.49
65010;BME280;51556;50.002;22.014;2022-12-20T00:09:05;100403.35;;;1.18;60.30
65010;BME280;51556;50.002;22.014;2022-12-20T00:11:31;100400.83;;;1.20;60.25
65010;BME280;51556;50.002;22.014;2022-12-20T00:13:57;100400.41;;;1.24;60.58
65010;BME280;51556;50.002;22.014;2022-12-20T00:16:25;100397.73;;;1.27;60.34
65010;BME280;51556;50.002;22.014;2022-12-20T00:18:59;100399.33;;;1.29;60.54
65010;BME280;51556;50.002;22.014;2022-12-20T00:21:26;100399.07;;;1.31;60.63
65010;BME280;51556;50.002;22.014;2022-12-20T00:23:53;100395.01;;;1.35;60.38
65010;BME280;51556;50.002;22.014;2022-12-20T00:26:24;100396.80;;;1.37;60.23
65010;BME280;51556;50.002;22.014;2022-12-20T00:28:50;100398.34;;;1.37;60.13
65010;BME280;51556;50.002;22.014;2022-12-20T00:31:16;100394.85;;;1.36;60.35
65010;BME280;51556;50.002;22.014;2022-12-20T00:33:45;100387.23;;;1.30;60.25
65010;BME280;51556;50.002;22.014;2022-12-20T00:36:11;100383.14;;;1.26;60.46
65010;BME280;51556;50.002;22.014;2022-12-20T00:38:37;100380.63;;;1.29;60.87
65010;BME280;51556;50.002;22.014;2022-12-20T00:43:31;100385.27;;;1.28;60.58
65010;BME280;51556;50.002;22.014;2022-12-20T00:45:57;100380.79;;;1.29;60.91
65010;BME280;51556;50.002;22.014;2022-12-20T00:48:23;100373.70;;;1.30;60.95
65010;BME280;51556;50.002;22.014;2022-12-20T00:50:49;100364.83;;;1.35;61.21
65010;BME280;51556;50.002;22.014;2022-12-20T00:53:15;100367.12;;;1.37;60.67
65010;BME280;51556;50.002;22.014;2022-12-20T00:55:44;100372.09;;;1.41;60.94
65010;BME280;51556;50.002;22.014;2022-12-20T00:58:11;100381.54;;;1.44;60.95
65010;BME280;51556;50.002;22.014;2022-12-20T01:00:37;100381.11;;;1.47;60.76
65010;BME280;51556;50.002;22.014;2022-12-20T01:03:02;100379.20;;;1.47;60.91
65010;BME280;51556;50.002;22.014;2022-12-20T01:05:28;100371.64;;;1.51;60.85
65010;BME280;51556;50.002;22.014;2022-12-20T01:07:53;100369.11;;;1.53;60.57
65010;BME280;51556;50.002;22.014;2022-12-20T01:10:19;100361.20;;;1.50;60.46
65010;BME280;51556;50.002;22.014;2022-12-20T01:12:44;100364.33;;;1.49;60.78
65010;BME280;51556;50.002;22.014;2022-12-20T01:15:10;100361.23;;;1.51;60.72
65010;BME280;51556;50.002;22.014;2022-12-20T01:17:35;100357.50;;;1.47;61.00
65010;BME280;51556;50.002;22.014;2022-12-20T01:20:02;100359.61;;;1.48;61.03
65010;BME280;51556;50.002;22.014;2022-12-20T01:22:28;100364.14;;;1.48;60.81
65010;BME280;51556;50.002;22.014;2022-12-20T01:24:53;100363.19;;;1.45;60.99
65010;BME280;51556;50.002;22.014;2022-12-20T01:27:19;100364.46;;;1.47;61.12
65010;BME280;51556;50.002;22.014;2022-12-20T01:29:44;100369.05;;;1.51;61.03
65010;BME280;51556;50.002;22.014;2022-12-20T01:32:09;100366.77;;;1.57;61.18
65010;BME280;51556;50.002;22.014;2022-12-20T01:34:35;100369.58;;;1.64;61.22
65010;BME280;51556;50.002;22.014;2022-12-20T01:37:00;100369.55;;;1.69;60.98
65010;BME280;51556;50.002;22.014;2022-12-20T01:39:26;100369.23;;;1.76;60.98
65010;BME280;51556;50.002;22.014;2022-12-20T01:41:51;100366.34;;;1.79;60.89
65010;BME280;51556;50.002;22.014;2022-12-20T01:46:43;100361.96;;;1.78;61.19
65010;BME280;51556;50.002;22.014;2022-12-20T01:49:11;100352.30;;;1.73;61.10
65010;BME280;51556;50.002;22.014;2022-12-20T01:51:42;100343.24;;;1.72;61.16
65010;BME280;51556;50.002;22.014;2022-12-20T01:54:22;100345.63;;;1.70;61.05
65010;BME280;51556;50.002;22.014;2022-12-20T01:56:52;100340.81;;;1.65;61.17
65010;BME280;51556;50.002;22.014;2022-12-20T01:59:20;100336.69;;;1.60;61.37
65010;BME280;51556;50.002;22.014;2022-12-20T02:01:45;100335.48;;;1.61;61.54
65010;BME280;51556;50.002;22.014;2022-12-20T02:04:11;100332.73;;;1.62;61.66
65010;BME280;51556;50.002;22.014;2022-12-20T02:06:37;100332.23;;;1.63;61.47
65010;BME280;51556;50.002;22.014;2022-12-20T02:09:03;100334.65;;;1.62;61.61
65010;BME280;51556;50.002;22.014;2022-12-20T02:31:03;100334.16;;;1.50;62.03
65010;BME280;51556;50.002;22.014;2022-12-20T02:33:29;100331.17;;;1.49;62.11
65010;BME280;51556;50.002;22.014;2022-12-20T02:35:55;100335.88;;;1.49;62.49
65010;BME280;51556;50.002;22.014;2022-12-20T02:38:35;100329.35;;;1.52;62.32
65010;BME280;51556;50.002;22.014;2022-12-20T02:41:05;100326.60;;;1.53;62.22
65010;BME280;51556;50.002;22.014;2022-12-20T02:43:33;100326.27;;;1.54;62.64
65010;BME280;51556;50.002;22.014;2022-12-20T02:46:24;100323.89;;;1.56;62.82
65010;BME280;51556;50.002;22.014;2022-12-20T02:48:51;100323.98;;;1.53;62.69
65010;BME280;51556;50.002;22.014;2022-12-20T02:51:19;100320.91;;;1.61;62.87
65010;BME280;51556;50.002;22.014;2022-12-20T02:53:47;100328.92;;;1.62;62.72
65010;BME280;51556;50.002;22.014;2022-12-20T02:56:19;100327.14;;;1.60;62.74
65010;BME280;51556;50.002;22.014;2022-12-20T02:58:54;100325.65;;;1.63;63.06
65010;BME280;51556;50.002;22.014;2022-12-20T03:01:30;100321.27;;;1.62;63.07
65010;BME280;51556;50.002;22.014;2022-12-20T03:03:57;100316.91;;;1.61;63.05
65010;BME280;51556;50.002;22.014;2022-12-20T03:06:23;100311.67;;;1.60;63.15
65010;BME280;51556;50.002;22.014;2022-12-20T03:08:48;100313.62;;;1.61;63.30
65010;BME280;51556;50.002;22.014;2022-12-20T03:11:14;100310.27;;;1.59;63.59
65010;BME280;51556;50.002;22.014;2022-12-20T03:13:40;100310.41;;;1.57;63.89
65010;BME280;51556;50.002;22.014;2022-12-20T03:16:06;100313.11;;;1.62;64.19
65010;BME280;51556;50.002;22.014;2022-12-20T03:18:31;100311.65;;;1.65;64.18
65010;BME280;51556;50.002;22.014;2022-12-20T03:20:57;100304.08;;;1.61;63.95
65010;BME280;51556;50.002;22.014;2022-12-20T03:23:23;100305.45;;;1.60;64.37
65010;BME280;51556;50.002;22.014;2022-12-20T03:25:48;100308.84;;;1.57;64.75
65010;BME280;51556;50.002;22.014;2022-12-20T03:28:13;100307.65;;;1.52;65.33
65010;BME280;51556;50.002;22.014;2022-12-20T03:30:39;100303.75;;;1.55;65.62
65010;BME280;51556;50.002;22.014;2022-12-20T03:33:04;100299.72;;;1.54;66.06
65010;BME280;51556;50.002;22.014;2022-12-20T03:35:30;100296.65;;;1.56;66.15
65010;BME280;51556;50.002;22.014;2022-12-20T03:37:55;100295.51;;;1.52;66.76
65010;BME280;51556;50.002;22.014;2022-12-20T03:40:21;100292.59;;;1.46;67.21
65010;BME280;51556;50.002;22.014;2022-12-20T03:42:47;100290.27;;;1.43;67.48
65010;BME280;51556;50.002;22.014;2022-12-20T03:45:12;100291.70;;;1.45;68.02
65010;BME280;51556;50.002;22.014;2022-12-20T03:47:37;100287.89;;;1.45;68.00
65010;BME280;51556;50.002;22.014;2022-12-20T03:50:05;100286.84;;;1.45;68.42
65010;BME280;51556;50.002;22.014;2022-12-20T03:52:30;100285.63;;;1.45;68.62
65010;BME280;51556;50.002;22.014;2022-12-20T03:54:56;100278.52;;;1.45;68.77
65010;BME280;51556;50.002;22.014;2022-12-20T03:57:21;100278.48;;;1.44;69.22
65010;BME280;51556;50.002;22.014;2022-12-20T03:59:47;100268.84;;;1.40;69.52
65010;BME280;51556;50.002;22.014;2022-12-20T04:02:12;100265.20;;;1.40;69.64
65010;BME280;51556;50.002;22.014;2022-12-20T04:04:38;100260.68;;;1.40;69.80
65010;BME280;51556;50.002;22.014;2022-12-20T04:07:03;100260.48;;;1.38;69.92
65010;BME280;51556;50.002;22.014;2022-12-20T04:09:28;100254.00;;;1.43;69.39
65010;BME280;51556;50.002;22.014;2022-12-20T04:11:54;100256.79;;;1.43;69.90
65010;BME280;51556;50.002;22.014;2022-12-20T04:14:19;100252.05;;;1.42;69.92
65010;BME280;51556;50.002;22.014;2022-12-20T04:16:45;100251.36;;;1.41;70.07
65010;BME280;51556;50.002;22.014;2022-12-20T04:19:10;100256.51;;;1.45;69.81
65010;BME280;51556;50.002;22.014;2022-12-20T04:21:36;100260.20;;;1.48;69.78
65010;BME280;51556;50.002;22.014;2022-12-20T04:24:02;100260.73;;;1.49;70.14
65010;BME280;51556;50.002;22.014;2022-12-20T04:26:28;100258.32;;;1.50;70.08
65010;BME280;51556;50.002;22.014;2022-12-20T04:28:54;100257.23;;;1.47;70.25
65010;BME280;51556;50.002;22.014;2022-12-20T04:31:19;100254.01;;;1.43;70.51
65010;BME280;51556;50.002;22.014;2022-12-20T04:33:45;100259.41;;;1.37;70.81
65010;BME280;51556;50.002;22.014;2022-12-20T04:36:11;100254.02;;;1.37;70.75
65010;BME280;51556;50.002;22.014;2022-12-20T04:38:37;100258.70;;;1.37;71.22
65010;BME280;51556;50.002;22.014;2022-12-20T04:41:02;100254.23;;;1.39;71.15
65010;BME280;51556;50.002;22.014;2022-12-20T04:43:28;100254.61;;;1.40;70.97
65010;BME280;51556;50.002;22.014;2022-12-20T04:45:55;100253.73;;;1.39;71.24
65010;BME280;51556;50.002;22.014;2022-12-20T04:48:22;100247.27;;;1.38;71.43
65010;BME280;51556;50.002;22.014;2022-12-20T04:50:54;100243.52;;;1.32;71.77
65010;BME280;51556;50.002;22.014;2022-12-20T04:53:21;100235.98;;;1.30;72.15
65010;BME280;51556;50.002;22.014;2022-12-20T04:56:05;100225.09;;;1.25;72.67
65010;BME280;51556;50.002;22.014;2022-12-20T04:58:31;100214.17;;;1.25;72.53
65010;BME280;51556;50.002;22.014;2022-12-20T05:00:57;100206.42;;;1.27;72.34
65010;BME280;51556;50.002;22.014;2022-12-20T05:03:24;100199.98;;;1.26;72.76
65010;BME280;51556;50.002;22.014;2022-12-20T05:05:49;100204.29;;;1.25;72.95
65010;BME280;51556;50.002;22.014;2022-12-20T05:08:15;100200.08;;;1.24;72.82
65010;BME280;51556;50.002;22.014;2022-12-20T05:10:40;100195.35;;;1.22;72.80
65010;BME280;51556;50.002;22.014;2022-12-20T05:13:06;100202.07;;;1.20;73.01
65010;BME280;51556;50.002;22.014;2022-12-20T05:15:32;100203.19;;;1.23;72.99
65010;BME280;51556;50.002;22.014;2022-12-20T05:17:58;100195.27;;;1.25;72.78
65010;BME280;51556;50.002;22.014;2022-12-20T05:20:31;100192.70;;;1.27;72.60
65010;BME280;51556;50.002;22.014;2022-12-20T05:22:57;100193.63;;;1.29;72.35
65010;BME280;51556;50.002;22.014;2022-12-20T05:25:46;100196.23;;;1.29;72.19
65010;BME280;51556;50.002;22.014;2022-12-20T05:28:31;100195.54;;;1.28;72.04
65010;BME280;51556;50.002;22.014;2022-12-20T05:30:56;100193.60;;;1.28;71.99
65010;BME280;51556;50.002;22.014;2022-12-20T05:33:22;100186.83;;;1.27;71.46
65010;BME280;51556;50.002;22.014;2022-12-20T05:35:47;100181.44;;;1.34;71.01
65010;BME280;51556;50.002;22.014;2022-12-20T05:38:13;100181.44;;;1.34;70.76
65010;BME280;51556;50.002;22.014;2022-12-20T05:40:38;100174.77;;;1.38;70.59
65010;BME280;51556;50.002;22.014;2022-12-20T05:43:04;100169.39;;;1.38;70.81
65010;BME280;51556;50.002;22.014;2022-12-20T05:45:30;100177.17;;;1.37;70.56
65010;BME280;51556;50.002;22.014;2022-12-20T05:47:56;100174.15;;;1.34;70.36
65010;BME280;51556;50.002;22.014;2022-12-20T05:50:21;100175.23;;;1.36;70.09
65010;BME280;51556;50.002;22.014;2022-12-20T05:52:47;100174.14;;;1.41;70.24
65010;BME280;51556;50.002;22.014;2022-12-20T05:55:12;100180.29;;;1.44;69.77
65010;BME280;51556;50.002;22.014;2022-12-20T05:57:38;100175.35;;;1.47;69.33
65010;BME280;51556;50.002;22.014;2022-12-20T06:00:04;100177.66;;;1.51;69.33
65010;BME280;51556;50.002;22.014;2022-12-20T06:02:29;100178.05;;;1.52;68.64
65010;BME280;51556;50.002;22.014;2022-12-20T06:04:55;100170.80;;;1.54;68.62
65010;BME280;51556;50.002;22.014;2022-12-20T06:07:21;100171.33;;;1.54;68.65
65010;BME280;51556;50.002;22.014;2022-12-20T06:09:47;100173.90;;;1.53;68.64
65010;BME280;51556;50.002;22.014;2022-12-20T06:12:12;100172.26;;;1.50;68.15
65010;BME280;51556;50.002;22.014;2022-12-20T06:14:38;100170.93;;;1.53;68.07
65010;BME280;51556;50.002;22.014;2022-12-20T06:17:03;100169.75;;;1.54;68.18
65010;BME280;51556;50.002;22.014;2022-12-20T06:19:29;100165.61;;;1.55;67.87
65010;BME280;51556;50.002;22.014;2022-12-20T06:21:54;100164.13;;;1.58;68.03
65010;BME280;51556;50.002;22.014;2022-12-20T06:24:19;100163.08;;;1.58;67.24
65010;BME280;51556;50.002;22.014;2022-12-20T06:26:45;100162.98;;;1.53;67.08
65010;BME280;51556;50.002;22.014;2022-12-20T06:29:10;100172.19;;;1.54;66.80
65010;BME280;51556;50.002;22.014;2022-12-20T06:31:39;100169.89;;;1.59;66.92
65010;BME280;51556;50.002;22.014;2022-12-20T06:34:04;100168.98;;;1.65;67.14
65010;BME280;51556;50.002;22.014;2022-12-20T06:36:30;100166.93;;;1.66;66.64
65010;BME280;51556;50.002;22.014;2022-12-20T06:38:56;100163.59;;;1.64;66.39
65010;BME280;51556;50.002;22.014;2022-12-20T06:41:21;100162.09;;;1.67;66.62
65010;BME280;51556;50.002;22.014;2022-12-20T06:43:47;100164.02;;;1.67;66.11
65010;BME280;51556;50.002;22.014;2022-12-20T06:46:12;100164.02;;;1.68;66.42
65010;BME280;51556;50.002;22.014;2022-12-20T06:48:37;100164.38;;;1.68;66.00
65010;BME280;51556;50.002;22.014;2022-12-20T06:51:03;100157.65;;;1.70;66.15
65010;BME280;51556;50.002;22.014;2022-12-20T06:53:28;100158.55;;;1.72;66.29
65010;BME280;51556;50.002;22.014;2022-12-20T06:55:54;100148.09;;;1.69;66.21
65010;BME280;51556;50.002;22.014;2022-12-20T06:58:19;100147.77;;;1.71;66.00
65010;BME280;51556;50.002;22.014;2022-12-20T07:00:45;100147.63;;;1.72;66.44
65010;BME280;51556;50.002;22.014;2022-12-20T07:03:12;100148.23;;;1.75;66.30
65010;BME280;51556;50.002;22.014;2022-12-20T07:05:38;100148.41;;;1.76;65.27
65010;BME280;51556;50.002;22.014;2022-12-20T07:08:04;100148.49;;;1.79;65.61
65010;BME280;51556;50.002;22.014;2022-12-20T07:10:32;100150.19;;;1.77;65.57
65010;BME280;51556;50.002;22.014;2022-12-20T07:12:58;100152.71;;;1.82;65.23
65010;BME280;51556;50.002;22.014;2022-12-20T07:15:23;100157.85;;;1.79;65.21
65010;BME280;51556;50.002;22.014;2022-12-20T07:17:48;100159.62;;;1.80;65.28
65010;BME280;51556;50.002;22.014;2022-12-20T07:20:14;100160.00;;;1.82;65.06
65010;BME280;51556;50.002;22.014;2022-12-20T07:22:40;100158.52;;;1.86;65.38
65010;BME280;51556;50.002;22.014;2022-12-20T07:25:06;100162.42;;;1.90;65.23
65010;BME280;51556;50.002;22.014;2022-12-20T07:27:32;100168.03;;;1.92;65.01
65010;BME280;51556;50.002;22.014;2022-12-20T07:29:57;100167.73;;;1.94;64.74
65010;BME280;51556;50.002;22.014;2022-12-20T07:32:22;100163.64;;;1.98;64.73
65010;BME280;51556;50.002;22.014;2022-12-20T07:34:48;100168.90;;;2.00;64.50
65010;BME280;51556;50.002;22.014;2022-12-20T07:37:13;100168.45;;;2.04;64.34
65010;BME280;51556;50.002;22.014;2022-12-20T07:39:38;100162.02;;;2.03;64.40
65010;BME280;51556;50.002;22.014;2022-12-20T07:42:06;100162.69;;;2.02;64.30
65010;BME280;51556;50.002;22.014;2022-12-20T07:44:32;100164.23;;;2.00;63.91
65010;BME280;51556;50.002;22.014;2022-12-20T07:46:57;100164.59;;;2.02;63.58
65010;BME280;51556;50.002;22.014;2022-12-20T07:49:22;100161.48;;;2.02;63.93
65010;BME280;51556;50.002;22.014;2022-12-20T07:51:52;100158.86;;;2.10;63.85
65010;BME280;51556;50.002;22.014;2022-12-20T07:54:23;100153.99;;;2.10;63.88
65010;BME280;51556;50.002;22.014;2022-12-20T07:56:53;100147.86;;;2.07;63.46
65010;BME280;51556;50.002;22.014;2022-12-20T07:59:24;100145.80;;;2.08;63.46
65010;BME280;51556;50.002;22.014;2022-12-20T08:01:51;100144.61;;;2.09;63.14
65010;BME280;51556;50.002;22.014;2022-12-20T08:04:20;100141.09;;;2.07;62.99
65010;BME280;51556;50.002;22.014;2022-12-20T08:06:48;100144.82;;;2.11;63.11
65010;BME280;51556;50.002;22.014;2022-12-20T08:09:15;100142.11;;;2.14;62.89
65010;BME280;51556;50.002;22.014;2022-12-20T08:11:43;100137.38;;;2.20;62.92
65010;BME280;51556;50.002;22.014;2022-12-20T08:14:10;100140.35;;;2.22;62.46
65010;BME280;51556;50.002;22.014;2022-12-20T08:16:36;100137.17;;;2.29;62.70
65010;BME280;51556;50.002;22.014;2022-12-20T08:19:01;100132.10;;;2.35;62.71
65010;BME280;51556;50.002;22.014;2022-12-20T08:21:27;100137.06;;;2.40;62.43
65010;BME280;51556;50.002;22.014;2022-12-20T08:23:53;100129.77;;;2.41;62.01
65010;BME280;51556;50.002;22.014;2022-12-20T08:26:18;100131.41;;;2.44;61.93
65010;BME280;51556;50.002;22.014;2022-12-20T08:28:44;100131.73;;;2.43;61.90
65010;BME280;51556;50.002;22.014;2022-12-20T08:31:09;100133.59;;;2.48;62.10
65010;BME280;51556;50.002;22.014;2022-12-20T08:33:36;100133.27;;;2.50;62.05
65010;BME280;51556;50.002;22.014;2022-12-20T08:36:05;100126.35;;;2.51;61.18
65010;BME280;51556;50.002;22.014;2022-12-20T08:38:31;100123.70;;;2.49;61.02
65010;BME280;51556;50.002;22.014;2022-12-20T08:41:03;100124.52;;;2.47;60.74
65010;BME280;51556;50.002;22.014;2022-12-20T08:43:31;100124.75;;;2.49;61.18
65010;BME280;51556;50.002;22.014;2022-12-20T08:45:57;100112.82;;;2.44;60.51
65010;BME280;51556;50.002;22.014;2022-12-20T08:48:22;100112.20;;;2.48;60.93
65010;BME280;51556;50.002;22.014;2022-12-20T08:50:56;100121.92;;;2.48;60.95
65010;BME280;51556;50.002;22.014;2022-12-20T08:53:22;100118.90;;;2.44;60.78
65010;BME280;51556;50.002;22.014;2022-12-20T08:55:47;100116.73;;;2.40;60.94
65010;BME280;51556;50.002;22.014;2022-12-20T08:58:13;100115.70;;;2.40;60.65
65010;BME280;51556;50.002;22.014;2022-12-20T09:00:39;100123.22;;;2.42;60.76
65010;BME280;51556;50.002;22.014;2022-12-20T09:03:05;100123.75;;;2.43;60.64
65010;BME280;51556;50.002;22.014;2022-12-20T09:05:32;100116.23;;;2.41;60.78
65010;BME280;51556;50.002;22.014;2022-12-20T09:07:57;100116.28;;;2.43;61.03
65010;BME280;51556;50.002;22.014;2022-12-20T09:10:23;100116.53;;;2.47;60.66
65010;BME280;51556;50.002;22.014;2022-12-20T09:12:48;100113.32;;;2.51;60.55
65010;BME280;51556;50.002;22.014;2022-12-20T09:15:13;100115.63;;;2.54;60.28
65010;BME280;51556;50.002;22.014;2022-12-20T09:17:39;100109.99;;;2.60;60.04
65010;BME280;51556;50.002;22.014;2022-12-20T09:20:05;100110.52;;;2.61;60.23
65010;BME280;51556;50.002;22.014;2022-12-20T09:22:30;100113.84;;;2.62;59.68
65010;BME280;51556;50.002;22.014;2022-12-20T09:24:56;100114.23;;;2.64;60.04
65010;BME280;51556;50.002;22.014;2022-12-20T09:27:22;100106.60;;;2.65;59.56
65010;BME280;51556;50.002;22.014;2022-12-20T09:29:47;100095.63;;;2.74;60.22
65010;BME280;51556;50.002;22.014;2022-12-20T09:32:13;100091.72;;;2.78;59.47
65010;BME280;51556;50.002;22.014;2022-12-20T09:34:38;100091.63;;;2.83;59.50
65010;BME280;51556;50.002;22.014;2022-12-20T09:37:04;100090.83;;;2.87;58.73
65010;BME280;51556;50.002;22.014;2022-12-20T09:39:29;100087.36;;;2.88;58.65
65010;BME280;51556;50.002;22.014;2022-12-20T09:41:54;100083.60;;;2.91;59.48
65010;BME280;51556;50.002;22.014;2022-12-20T09:44:34;100090.81;;;2.96;59.27
65010;BME280;51556;50.002;22.014;2022-12-20T09:47:04;100091.20;;;3.00;59.05
65010;BME280;51556;50.002;22.014;2022-12-20T09:49:32;100093.90;;;3.06;58.65
65010;BME280;51556;50.002;22.014;2022-12-20T09:54:46;100102.25;;;3.15;57.95
65010;BME280;51556;50.002;22.014;2022-12-20T10:00:35;100087.81;;;3.16;57.87
65010;BME280;51556;50.002;22.014;2022-12-20T10:03:04;100083.85;;;3.18;58.15
65010;BME280;51556;50.002;22.014;2022-12-20T10:05:38;100086.67;;;3.21;57.53
65010;BME280;51556;50.002;22.014;2022-12-20T10:08:16;100081.27;;;3.19;57.17
65010;BME280;51556;50.002;22.014;2022-12-20T10:13:41;100079.70;;;3.19;57.41
65010;BME280;51556;50.002;22.014;2022-12-20T10:24:15;100048.42;;;3.33;57.07
65010;BME280;51556;50.002;22.014;2022-12-20T10:26:42;100041.64;;;3.33;56.56
65010;BME280;51556;50.002;22.014;2022-12-20T10:29:08;100037.50;;;3.38;56.80
65010;BME280;51556;50.002;22.014;2022-12-20T10:31:34;100038.03;;;3.38;56.73
65010;BME280;51556;50.002;22.014;2022-12-20T10:34:00;100028.98;;;3.38;56.57
65010;BME280;51556;50.002;22.014;2022-12-20T10:38:55;100024.48;;;3.40;56.13
65010;BME280;51556;50.002;22.014;2022-12-20T10:41:24;100026.56;;;3.40;56.15
65010;BME280;51556;50.002;22.014;2022-12-20T10:43:54;100019.17;;;3.46;57.03
65010;BME280;51556;50.002;22.014;2022-12-20T10:46:21;100016.29;;;3.52;56.69
65010;BME280;51556;50.002;22.014;2022-12-20T10:48:48;100009.41;;;3.58;56.84
65010;BME280;51556;50.002;22.014;2022-12-20T10:51:20;100008.25;;;3.62;56.16
65010;BME280;51556;50.002;22.014;2022-12-20T10:54:00;100008.40;;;3.60;55.98
65010;BME280;51556;50.002;22.014;2022-12-20T10:56:31;100014.45;;;3.57;55.83
65010;BME280;51556;50.002;22.014;2022-12-20T10:59:30;100001.39;;;3.57;55.71
65010;BME280;51556;50.002;22.014;2022-12-20T11:01:57;99991.41;;;3.54;55.69
65010;BME280;51556;50.002;22.014;2022-12-20T11:06:57;99990.98;;;3.59;56.16
65010;BME280;51556;50.002;22.014;2022-12-20T11:09:36;99993.95;;;3.61;55.77
65010;BME280;51556;50.002;22.014;2022-12-20T11:12:14;99991.72;;;3.63;55.41
65010;BME280;51556;50.002;22.014;2022-12-20T11:14:42;99990.02;;;3.67;55.65
65010;BME280;51556;50.002;22.014;2022-12-20T11:22:58;99985.56;;;3.88;55.53
65010;BME280;51556;50.002;22.014;2022-12-20T11:33:54;99983.11;;;4.01;54.52
65010;BME280;51556;50.002;22.014;2022-12-20T11:56:02;99973.45;;;4.29;53.53
65010;BME280;51556;50.002;22.014;2022-12-20T12:01:03;99964.02;;;4.27;54.35
65010;BME280;51556;50.002;22.014;2022-12-20T12:03:37;99963.45;;;4.23;54.50
65010;BME280;51556;50.002;22.014;2022-12-20T12:06:11;99965.04;;;4.25;54.86
65010;BME280;51556;50.002;22.014;2022-12-20T12:08:48;99962.40;;;4.23;54.09
65010;BME280;51556;50.002;22.014;2022-12-20T12:11:23;99967.54;;;4.14;54.25
65010;BME280;51556;50.002;22.014;2022-12-20T12:13:49;99961.23;;;4.11;54.60
65010;BME280;51556;50.002;22.014;2022-12-20T12:16:19;99951.80;;;4.07;54.70
65010;BME280;51556;50.002;22.014;2022-12-20T12:18:47;99937.77;;;3.96;54.41
65010;BME280;51556;50.002;22.014;2022-12-20T12:26:23;99920.09;;;3.72;55.49
65010;BME280;51556;50.002;22.014;2022-12-20T12:28:55;99913.98;;;3.71;55.47
65010;BME280;51556;50.002;22.014;2022-12-20T12:31:47;99912.89;;;3.66;55.60
65010;BME280;51556;50.002;22.014;2022-12-20T12:37:10;99921.54;;;3.61;55.95
65010;BME280;51556;50.002;22.014;2022-12-20T12:42:55;99927.15;;;3.64;55.98
65010;BME280;51556;50.002;22.014;2022-12-20T12:45:51;99929.21;;;3.61;56.25
65010;BME280;51556;50.002;22.014;2022-12-20T12:48:26;99923.94;;;3.58;56.05
65010;BME280;51556;50.002;22.014;2022-12-20T12:50:55;99919.04;;;3.56;56.24
65010;BME280;51556;50.002;22.014;2022-12-20T12:53:41;99932.95;;;3.54;56.24
65010;BME280;51556;50.002;22.014;2022-12-20T12:59:21;99933.52;;;3.45;56.75
65010;BME280;51556;50.002;22.014;2022-12-20T13:04:29;99931.84;;;3.35;56.78
65010;BME280;51556;50.002;22.014;2022-12-20T13:07:01;99932.69;;;3.32;56.34
65010;BME280;51556;50.002;22.014;2022-12-20T13:11:56;99921.45;;;3.24;56.93
65010;BME280;51556;50.002;22.014;2022-12-20T13:16:53;99920.55;;;3.23;57.29
65010;BME280;51556;50.002;22.014;2022-12-20T13:21:56;99917.90;;;3.19;57.13
65010;BME280;51556;50.002;22.014;2022-12-20T13:27:26;99929.98;;;3.13;56.94
65010;BME280;51556;50.002;22.014;2022-12-20T13:40:37;99954.98;;;3.09;57.36
65010;BME280;51556;50.002;22.014;2022-12-20T13:43:29;99956.86;;;3.07;57.30
65010;BME280;51556;50.002;22.014;2022-12-20T13:51:03;99952.39;;;3.11;57.69
65010;BME280;51556;50.002;22.014;2022-12-20T13:53:29;99956.77;;;3.13;57.90
65010;BME280;51556;50.002;22.014;2022-12-20T13:55:55;99961.52;;;3.15;57.44
65010;BME280;51556;50.002;22.014;2022-12-20T13:58:26;99960.05;;;3.11;57.30
65010;BME280;51556;50.002;22.014;2022-12-20T14:00:53;99961.42;;;3.09;57.52
65010;BME280;51556;50.002;22.014;2022-12-20T14:03:27;99960.70;;;3.07;57.17
65010;BME280;51556;50.002;22.014;2022-12-20T14:05:59;99947.67;;;3.08;57.64
65010;BME280;51556;50.002;22.014;2022-12-20T14:08:29;99955.71;;;3.12;57.58
65010;BME280;51556;50.002;22.014;2022-12-20T14:11:09;99958.80;;;3.08;57.01
65010;BME280;51556;50.002;22.014;2022-12-20T14:13:35;99961.43;;;3.10;57.37
65010;BME280;51556;50.002;22.014;2022-12-20T14:16:14;99951.02;;;3.11;57.31
65010;BME280;51556;50.002;22.014;2022-12-20T14:18:40;99937.06;;;3.09;57.33
65010;BME280;51556;50.002;22.014;2022-12-20T14:21:06;99940.35;;;3.08;57.15
65010;BME280;51556;50.002;22.014;2022-12-20T14:23:39;99928.73;;;3.09;57.82
65010;BME280;51556;50.002;22.014;2022-12-20T14:26:10;99917.10;;;3.12;57.76
65010;BME280;51556;50.002;22.014;2022-12-20T14:28:43;99917.31;;;3.15;57.75
65010;BME280;51556;50.002;22.014;2022-12-20T14:31:45;99916.53;;;3.08;57.56
65010;BME280;51556;50.002;22.014;2022-12-20T14:40:15;99926.87;;;2.88;57.90
65010;BME280;51556;50.002;22.014;2022-12-20T14:42:42;99926.81;;;2.84;57.94
65010;BME280;51556;50.002;22.014;2022-12-20T14:47:33;99922.66;;;2.74;58.02
65010;BME280;51556;50.002;22.014;2022-12-20T14:50:16;99922.52;;;2.76;58.30
65010;BME280;51556;50.002;22.014;2022-12-20T14:52:43;99922.10;;;2.72;58.02
65010;BME280;51556;50.002;22.014;2022-12-20T14:55:21;99918.24;;;2.70;58.15
65010;BME280;51556;50.002;22.014;2022-12-20T14:57:51;99918.35;;;2.65;58.40
65010;BME280;51556;50.002;22.014;2022-12-20T15:08:32;99905.30;;;2.64;58.43
65010;BME280;51556;50.002;22.014;2022-12-20T15:11:02;99904.41;;;2.62;58.25
65010;BME280;51556;50.002;22.014;2022-12-20T15:16:14;99908.55;;;2.60;58.40
65010;BME280;51556;50.002;22.014;2022-12-20T15:18:40;99899.16;;;2.60;58.46
65010;BME280;51556;50.002;22.014;2022-12-20T15:23:48;99898.46;;;2.61;58.30
65010;BME280;51556;50.002;22.014;2022-12-20T15:26:16;99898.84;;;2.63;58.46